Data for 03/28/2005

Time Sea-Level Adjusted Pressure Absolute Pressure Temperature Relative Humidity Dew Point   
(mb) (inHg) (mb) (inHg) (C) (F) (%) (C) (F)
00:05 1003 29.62 832 24.57 10.1 50.2 39 -3.1 26.5
00:10 1003 29.62 832 24.57 10.3 50.5 39 -2.9 26.7
00:15 1003 29.62 832 24.57 10.1 50.2 40 -2.8 27
00:20 1003 29.62 832 24.57 10 50 39 -3.1 26.3
00:25 1003 29.62 832 24.57 9.9 49.9 41 -2.6 27.4
00:30 1003 29.62 832 24.57 10 50 38 -3.5 25.7
00:35 1003 29.62 832 24.57 10.2 50.4 40 -2.8 27
00:40 1003 29.62 832 24.57 9.8 49.7 42 -2.4 27.7
00:45 1003 29.62 832 24.57 9.4 48.9 45 -2 28.4
00:50 1003 29.62 832 24.57 8.7 47.7 46 -2.1 28.2
00:55 1003 29.62 832 24.57 8.6 47.4 44 -3.1 26.5
01:00 1002 29.59 832 24.57 9.2 48.5 43 -2.6 27.2
01:05 1002 29.59 832 24.57 8.9 48 45 -2.3 27.8
01:10 1002 29.59 831 24.54 8.4 47.1 47 -2.3 27.9
01:15 1002 29.59 831 24.54 8.2 46.7 47 -2.5 27.5
01:20 1002 29.59 831 24.54 8.3 47 46 -2.5 27.4
01:25 1002 29.59 831 24.54 8.4 47.1 46 -2.5 27.5
01:30 1002 29.59 831 24.54 8.4 47.1 45 -2.9 26.8
01:35 1002 29.59 831 24.54 8.6 47.5 45 -2.6 27.4
01:40 1002 29.59 831 24.54 8.6 47.5 44 -3 26.7
01:45 1002 29.59 831 24.54 8.9 48 45 -2.5 27.5
01:50 1001 29.56 831 24.54 8.6 47.5 45 -2.7 27.1
01:55 1001 29.56 831 24.54 8.6 47.4 43 -3.2 26.2
02:00 1001 29.56 831 24.54 9.3 48.7 41 -3.3 26
02:05 1001 29.56 830 24.51 9.3 48.8 43 -2.7 27.1
02:10 1001 29.56 830 24.51 9 48.1 42 -3.3 26.1
02:15 1001 29.56 830 24.51 10 49.9 38 -3.7 25.4
02:20 1001 29.56 830 24.51 9.8 49.7 40 -3.1 26.4
02:25 1001 29.56 830 24.51 10.1 50.2 37 -3.9 25
02:30 1001 29.56 830 24.51 11 51.8 35 -3.8 25.1
02:35 1001 29.56 830 24.51 11.2 52.1 36 -3.2 26.3
02:40 1001 29.56 830 24.51 10.9 51.7 38 -2.9 26.8
02:45 1001 29.56 830 24.51 10.5 50.9 38 -3.1 26.4
02:50 1001 29.56 830 24.51 10.2 50.4 39 -3.1 26.5
02:55 1001 29.56 830 24.51 10 49.9 41 -2.8 27
03:00 1001 29.56 830 24.51 9.9 49.8 40 -2.9 26.7
03:05 1000 29.53 830 24.51 9.8 49.7 41 -2.9 26.8
03:10 1000 29.53 830 24.51 9.6 49.4 42 -2.7 27.2
03:15 1000 29.53 829 24.48 9.4 49 43 -2.6 27.4
03:20 1000 29.53 829 24.48 9.5 49 42 -2.8 27
03:25 1000 29.53 829 24.48 9.7 49.5 42 -2.6 27.3
03:30 1000 29.53 829 24.48 9.8 49.7 41 -2.6 27.2
03:35 1000 29.53 829 24.48 9.7 49.5 41 -2.7 27.1
03:40 1000 29.53 829 24.48 10 49.9 42 -2.4 27.8
03:45 1000 29.53 830 24.51 10.2 50.3 41 -2.6 27.3
03:50 1000 29.53 830 24.51 10.2 50.4 41 -2.5 27.4
03:55 1000 29.53 829 24.48 10.2 50.4 40 -2.7 27.1
04:00 1000 29.53 829 24.48 10.3 50.6 40 -2.5 27.4
04:05 1000 29.53 829 24.48 10.3 50.5 41 -2.5 27.5
04:10 1000 29.53 829 24.48 10 50 45 -1.4 29.5
04:15 1000 29.53 829 24.48 9.8 49.6 44 -1.8 28.7
04:20 1000 29.53 829 24.48 9.8 49.6 45 -1.6 29
04:25 1000 29.53 829 24.48 10 49.9 43 -2.1 28.2
04:30 1000 29.53 829 24.48 10 50 42 -2.2 28.1
04:35 1000 29.53 829 24.48 9.9 49.8 42 -2.5 27.5
04:40 1000 29.53 829 24.48 10 49.9 42 -2.2 28
04:45 1000 29.53 829 24.48 9.8 49.6 43 -2.1 28.2
04:50 1000 29.53 829 24.48 9.2 48.6 46 -1.7 28.9
04:55 1000 29.53 829 24.48 8.7 47.7 48 -1.6 29.1
05:00 1000 29.53 829 24.48 8.5 47.4 48 -1.9 28.5
05:05 1000 29.53 829 24.48 9.1 48.4 45 -2.2 28
05:10 1000 29.53 829 24.48 9.7 49.4 43 -2.2 28.1
05:15 1000 29.53 829 24.48 9.9 49.9 44 -1.8 28.7
05:20 999 29.5 829 24.48 10 49.9 45 -1.4 29.5
05:25 999 29.5 828 24.45 9.8 49.7 45 -1.5 29.2
05:30 999 29.5 828 24.45 9.8 49.6 46 -1.3 29.7
05:35 999 29.5 828 24.45 9.8 49.6 45 -1.6 29.1
05:40 999 29.5 828 24.45 9.7 49.4 46 -1.5 29.3
05:45 999 29.5 828 24.45 9.6 49.3 46 -1.5 29.3
05:50 999 29.5 828 24.45 9.6 49.2 46 -1.4 29.6
05:55 999 29.5 828 24.45 9.5 49.2 46 -1.6 29.2
06:00 999 29.5 828 24.45 9.5 49.1 46 -1.5 29.3
06:05 999 29.5 828 24.45 9.5 49 47 -1.2 29.9
06:10 999 29.5 828 24.45 9.4 48.8 48 -1.2 29.9
06:15 999 29.5 828 24.45 9.2 48.5 49 -1 30.2
06:20 999 29.5 828 24.45 9 48.1 49 -1.1 29.9
06:25 999 29.5 828 24.45 8.9 48.1 49 -1.2 29.8
06:30 999 29.5 828 24.45 8.7 47.7 50 -1.1 30
06:35 999 29.5 828 24.45 8.8 47.8 49 -1.3 29.6
06:40 999 29.5 828 24.45 8.8 47.8 49 -1.2 29.8
06:45 999 29.5 828 24.45 8.8 47.8 48 -1.7 28.9
06:50 998 29.47 828 24.45 9.1 48.3 45 -2 28.3
06:55 998 29.47 828 24.45 9.4 48.8 45 -1.8 28.7
07:00 998 29.47 828 24.45 9.5 49 46 -1.5 29.3
07:05 998 29.47 828 24.45 9.4 48.9 46 -1.7 29
07:10 998 29.47 828 24.45 9.5 49 46 -1.4 29.5
07:15 999 29.5 828 24.45 9.3 48.7 47 -1.3 29.6
07:20 999 29.5 828 24.45 9.3 48.7 48 -1.3 29.7
07:25 999 29.5 828 24.45 9.3 48.7 48 -1.2 29.8
07:30 999 29.5 828 24.45 9.2 48.6 47 -1.4 29.5
07:35 999 29.5 828 24.45 9.2 48.5 49 -1 30.2
07:40 999 29.5 828 24.45 9.1 48.4 49 -1 30.2
07:45 998 29.47 828 24.45 9.2 48.5 49 -1.1 30.1
07:50 998 29.47 827 24.42 9.3 48.7 48 -1 30.2
07:55 998 29.47 827 24.42 9.4 48.9 47 -1.4 29.5
08:00 998 29.47 827 24.42 9.5 49.1 47 -1.3 29.7
08:05 998 29.47 827 24.42 9.7 49.4 46 -1.4 29.5
08:10 998 29.47 827 24.42 9.8 49.7 44 -1.9 28.6
08:15 998 29.47 827 24.42 10 50 42 -2.2 28
08:20 998 29.47 827 24.42 10.1 50.2 41 -2.4 27.7
08:25 998 29.47 827 24.42 10.2 50.4 41 -2.3 27.8
08:30 998 29.47 827 24.42 10.4 50.6 42 -1.9 28.6
08:35 998 29.47 827 24.42 10.5 50.8 42 -1.9 28.5
08:40 998 29.47 827 24.42 10.5 50.9 40 -2.6 27.4
08:45 998 29.47 827 24.42 10.6 51.1 40 -2.3 27.8
08:50 998 29.47 827 24.42 10.6 51.1 40 -2.2 28
08:55 998 29.47 827 24.42 10.6 51.1 41 -2.1 28.1
09:00 998 29.47 827 24.42 10.6 51.2 41 -2 28.5
09:05 998 29.47 827 24.42 10.6 51 42 -1.7 28.9
09:10 998 29.47 827 24.42 10.5 50.8 42 -2 28.4
09:15 998 29.47 827 24.42 10.5 51 44 -1.2 29.9
09:20 998 29.47 827 24.42 10.4 50.8 44 -1.4 29.6
09:25 998 29.47 828 24.45 10.3 50.6 45 -1.1 30
09:30 998 29.47 828 24.45 10.2 50.4 45 -1.1 30
09:35 999 29.5 828 24.45 9.9 49.9 47 -0.9 30.4
09:40 999 29.5 828 24.45 9.8 49.6 48 -0.7 30.8
09:45 999 29.5 828 24.45 9.9 49.9 49 -0.1 31.8
09:50 999 29.5 828 24.45 9.8 49.6 49 -0.2 31.6
09:55 999 29.5 829 24.48 9.8 49.6 50 -0.2 31.7
10:00 1000 29.53 829 24.48 10 49.9 49 -0.4 31.4
10:05 999 29.5 829 24.48 9.9 49.9 50 -0.1 31.8
10:10 1000 29.53 829 24.48 9.9 49.9 50 0 32.1
10:15 1000 29.53 829 24.48 9.8 49.6 51 0.2 32.3
10:20 1000 29.53 829 24.48 9.2 48.6 53 0.3 32.5
10:25 1000 29.53 829 24.48 8.9 47.9 55 0.2 32.4
10:30 1000 29.53 829 24.48 8.8 47.9 54 -0.1 31.9
10:35 999 29.5 829 24.48 8.9 48 53 -0.1 31.7
10:40 999 29.5 829 24.48 9.1 48.5 51 -0.4 31.3
10:45 999 29.5 829 24.48 9.5 49.1 50 -0.3 31.5
10:50 999 29.5 829 24.48 9.8 49.6 50 -0.1 31.8
10:55 1000 29.53 829 24.48 9.4 48.9 51 -0.2 31.6
11:00 999 29.5 829 24.48 9.1 48.4 51 -0.4 31.3
11:05 999 29.5 829 24.48 9.2 48.5 48 -1.1 29.9
11:10 1000 29.53 829 24.48 9.4 48.9 48 -0.9 30.4
11:15 999 29.5 829 24.48 9.5 49.2 48 -0.8 30.5
11:20 999 29.5 829 24.48 9.5 49 49 -0.8 30.5
11:25 999 29.5 829 24.48 9.5 49 49 -0.7 30.8
11:30 999 29.5 829 24.48 9.4 49 49 -0.7 30.7
11:35 999 29.5 829 24.48 9.4 48.8 50 -0.5 31.1
11:40 999 29.5 829 24.48 9.5 49 50 -0.4 31.4
11:45 999 29.5 829 24.48 9.3 48.8 59 1.9 35.3
11:50 999 29.5 829 24.48 9 48.1 61 2 35.5
11:55 999 29.5 829 24.48 8.4 47.2 64 2.2 35.9
12:00 999 29.5 829 24.48 7.9 46.3 66 2 35.7
12:05 999 29.5 828 24.45 7.8 46 65 1.5 34.8
12:10 999 29.5 828 24.45 8.2 46.7 64 1.8 35.2
12:15 999 29.5 828 24.45 8.3 47 63 1.8 35.2
12:20 999 29.5 828 24.45 8.4 47.1 65 2.2 35.9
12:25 999 29.5 828 24.45 8.7 47.6 61 1.7 35
12:30 999 29.5 828 24.45 8.6 47.4 63 2 35.6
12:35 999 29.5 828 24.45 8.9 48 62 2 35.7
12:40 999 29.5 828 24.45 8.9 48 61 1.7 35.1
12:45 999 29.5 828 24.45 9.6 49.3 58 1.7 35.1
12:50 999 29.5 828 24.45 9.3 48.8 57 1.2 34.2
12:55 999 29.5 828 24.45 9.7 49.4 57 1.7 35
13:00 998 29.47 828 24.45 9.6 49.2 56 1.2 34.2
13:05 998 29.47 828 24.45 9.7 49.5 56 1.3 34.3
13:10 998 29.47 827 24.42 10.6 51 52 1.1 34
13:15 998 29.47 828 24.45 10.9 51.6 50 0.9 33.6
13:20 998 29.47 828 24.45 11 51.8 50 1 33.8
13:25 999 29.5 828 24.45 10.4 50.8 52 1.1 34
13:30 999 29.5 828 24.45 9.6 49.4 53 0.5 33
13:35 999 29.5 829 24.48 7.6 45.7 62 0.9 33.6
13:40 1000 29.53 829 24.48 6 42.8 75 1.8 35.3
13:45 1000 29.53 829 24.48 4.8 40.6 80 1.7 35
13:50 1000 29.53 829 24.48 4.3 39.7 84 1.7 35.1
13:55 1000 29.53 829 24.48 3.9 39.1 84 1.4 34.5
14:00 1000 29.53 829 24.48 3.9 39 84 1.4 34.5
14:05 1000 29.53 829 24.48 4.1 39.3 83 1.4 34.6
14:10 1000 29.53 829 24.48 4.1 39.3 82 1.2 34.2
14:15 1000 29.53 829 24.48 3.9 39.1 81 1 33.8
14:20 999 29.5 829 24.48 3.9 39.1 82 1.1 34
14:25 999 29.5 828 24.45 4.2 39.6 80 1 33.8
14:30 999 29.5 828 24.45 4.4 39.9 81 1.4 34.5
14:35 999 29.5 828 24.45 4.3 39.7 80 1.1 34
14:40 999 29.5 828 24.45 4.4 39.9 80 1.3 34.3
14:45 999 29.5 828 24.45 4.9 40.8 77 1.3 34.3
14:50 999 29.5 829 24.48 5.5 41.9 71 0.7 33.2
14:55 1000 29.53 829 24.48 6.2 43.2 71 1.5 34.6
15:00 1000 29.53 829 24.48 6.6 43.9 65 0.6 33
15:05 1000 29.53 829 24.48 6.5 43.8 67 0.9 33.6
15:10 1000 29.53 829 24.48 6.2 43.2 80 3 37.5
15:15 1000 29.53 829 24.48 5.5 42 84 3.1 37.6
15:20 1000 29.53 829 24.48 5 41.1 86 2.8 37.1
15:25 1000 29.53 829 24.48 4.7 40.4 85 2.4 36.4
15:30 1000 29.53 830 24.51 4.4 40 85 2.1 35.9
15:35 1001 29.56 830 24.51 4.5 40.1 84 2.1 35.8
15:40 1001 29.56 830 24.51 4.6 40.2 85 2.3 36.1
15:45 1001 29.56 830 24.51 4.4 39.9 88 2.5 36.5
15:50 1001 29.56 830 24.51 4.2 39.5 88 2.3 36.2
15:55 1001 29.56 830 24.51 3.9 39 89 2.2 36
16:00 1001 29.56 830 24.51 3.9 39 86 1.8 35.3
16:05 1001 29.56 830 24.51 3.7 38.6 88 2 35.5
16:10 1001 29.56 830 24.51 3.5 38.3 87 1.6 34.9
16:15 1001 29.56 830 24.51 3.2 37.7 89 1.5 34.7
16:20 1001 29.56 830 24.51 2.7 36.9 91 1.3 34.4
16:25 1001 29.56 830 24.51 2.6 36.7 92 1.5 34.6
16:30 1001 29.56 831 24.54 2.6 36.7 93 1.6 34.8
16:35 1001 29.56 831 24.54 2.7 36.8 92 1.5 34.8
16:40 1002 29.59 831 24.54 2.5 36.5 93 1.4 34.5
16:45 1002 29.59 831 24.54 2.2 35.9 93 1.1 34
16:50 1002 29.59 831 24.54 1.8 35.2 94 0.9 33.6
16:55 1002 29.59 831 24.54 1.4 34.6 94 0.5 32.9
17:00 1002 29.59 831 24.54 1.1 33.9 96 0.5 32.9
17:05 1002 29.59 831 24.54 0.6 33.1 98 0.3 32.6
17:10 1002 29.59 831 24.54 0.6 33.1 98 0.3 32.6
17:15 1002 29.59 831 24.54 0.6 33.1 98 0.3 32.6
17:20 1002 29.59 831 24.54 0.5 32.9 99 0.3 32.6
17:25 1002 29.59 831 24.54 0.5 32.9 99 0.3 32.6
17:30 1002 29.59 831 24.54 0.5 32.9 99 0.4 32.7
17:35 1002 29.59 831 24.54 0.5 32.9 99 0.3 32.6
17:40 1002 29.59 831 24.54 0.4 32.8 99 0.3 32.6
17:45 1002 29.59 831 24.54 0.4 32.7 99 0.3 32.5
17:50 1002 29.59 831 24.54 0.4 32.7 100 0.3 32.6
17:55 1002 29.59 831 24.54 0.4 32.8 99 0.3 32.6
18:00 1002 29.59 831 24.54 0.4 32.7 100 0.3 32.6
18:05 1002 29.59 831 24.54 0.4 32.7 100 0.3 32.6
18:10 1002 29.59 831 24.54 0.5 32.9 100 0.5 32.9
18:15 1002 29.59 831 24.54 0.8 33.4 98 0.6 33
18:20 1002 29.59 831 24.54 0.9 33.6 98 0.7 33.2
18:25 1002 29.59 831 24.54 0.9 33.6 97 0.5 32.9
18:30 1002 29.59 831 24.54 0.7 33.2 98 0.5 32.8
18:35 1002 29.59 831 24.54 0.7 33.2 99 0.5 32.9
18:40 1002 29.59 831 24.54 0.8 33.5 98 0.5 33
18:45 1002 29.59 831 24.54 0.8 33.5 99 0.6 33.1
18:50 1002 29.59 831 24.54 0.8 33.5 98 0.6 33
18:55 1002 29.59 831 24.54 0.8 33.5 98 0.6 33.1
19:00 1002 29.59 831 24.54 1.1 33.9 98 0.8 33.5
19:05 1002 29.59 832 24.57 1.3 34.3 98 0.9 33.7
19:10 1002 29.59 832 24.57 1.4 34.6 96 0.8 33.5
19:15 1002 29.59 832 24.57 1.3 34.4 96 0.8 33.4
19:20 1002 29.59 832 24.57 1.2 34.1 97 0.7 33.3
19:25 1002 29.59 832 24.57 1.1 34 97 0.7 33.2
19:30 1002 29.59 832 24.57 1.2 34.1 97 0.8 33.4
19:35 1002 29.59 832 24.57 1.2 34.2 97 0.7 33.3
19:40 1003 29.62 832 24.57 1.3 34.3 96 0.7 33.2
19:45 1003 29.62 832 24.57 1.3 34.3 96 0.7 33.2
19:50 1002 29.59 832 24.57 1.2 34.1 96 0.6 33.1
19:55 1003 29.62 832 24.57 1.1 34.1 96 0.6 33.1
20:00 1003 29.62 832 24.57 1.1 34 96 0.6 33
20:05 1003 29.62 832 24.57 1.2 34.2 95 0.5 32.9
20:10 1003 29.62 832 24.57 1.3 34.4 94 0.5 32.9
20:15 1003 29.62 832 24.57 1.5 34.7 92 0.4 32.7
20:20 1003 29.62 832 24.57 1.7 35.1 91 0.4 32.7
20:25 1003 29.62 832 24.57 1.7 35 91 0.4 32.8
20:30 1003 29.62 832 24.57 1.6 34.8 91 0.3 32.6
20:35 1003 29.62 832 24.57 1.7 35 91 0.4 32.7
20:40 1003 29.62 832 24.57 1.8 35.3 90 0.4 32.7
20:45 1003 29.62 832 24.57 2 35.5 91 0.6 33
20:50 1003 29.62 832 24.57 2 35.6 91 0.6 33.1
20:55 1003 29.62 832 24.57 2.1 35.8 91 0.8 33.5
21:00 1003 29.62 832 24.57 2.1 35.9 88 0.4 32.8
21:05 1003 29.62 832 24.57 2.2 36 88 0.5 32.9
21:10 1003 29.62 832 24.57 2.1 35.8 88 0.3 32.6
21:15 1003 29.62 832 24.57 2.1 35.8 88 0.4 32.7
21:20 1003 29.62 832 24.57 1.9 35.5 92 0.7 33.3
21:25 1003 29.62 832 24.57 1.9 35.3 91 0.5 32.8
21:30 1003 29.62 832 24.57 1.8 35.2 92 0.6 33
21:35 1003 29.62 832 24.57 1.6 34.9 93 0.6 33
21:40 1003 29.62 832 24.57 1.6 34.9 92 0.5 32.8
21:45 1003 29.62 832 24.57 1.6 34.9 92 0.5 32.9
21:50 1003 29.62 832 24.57 1.6 34.9 93 0.6 33
21:55 1003 29.62 832 24.57 1.7 35 91 0.3 32.5
22:00 1003 29.62 832 24.57 1.9 35.3 87 -0.1 31.7
22:05 1003 29.62 832 24.57 2 35.6 87 0 32.1
22:10 1003 29.62 832 24.57 2 35.7 85 -0.2 31.6
22:15 1003 29.62 832 24.57 2 35.5 86 -0.1 31.7
22:20 1003 29.62 832 24.57 1.9 35.3 86 -0.2 31.7
22:25 1003 29.62 832 24.57 1.9 35.3 86 -0.3 31.5
22:30 1003 29.62 832 24.57 1.9 35.4 86 -0.2 31.6
22:35 1003 29.62 832 24.57 1.8 35.2 86 -0.3 31.5
22:40 1003 29.62 832 24.57 1.6 34.9 85 -0.6 31
22:45 1003 29.62 832 24.57 1.7 35 84 -0.7 30.8
22:50 1003 29.62 832 24.57 1.7 35.1 82 -1 30.3
22:55 1003 29.62 832 24.57 1.9 35.4 81 -0.9 30.3
23:00 1003 29.62 832 24.57 2 35.6 81 -1 30.2
23:05 1003 29.62 832 24.57 2 35.6 80 -1 30.1
23:10 1003 29.62 832 24.57 1.9 35.4 81 -1 30.1
23:15 1003 29.62 832 24.57 1.7 35 83 -1 30.3
23:20 1003 29.62 832 24.57 1.6 34.9 85 -0.7 30.8
23:25 1003 29.62 832 24.57 1.2 34.2 86 -0.9 30.3
23:30 1003 29.62 832 24.57 0.9 33.6 85 -1.4 29.5
23:35 1003 29.62 832 24.57 0.8 33.4 83 -1.8 28.8
23:40 1003 29.62 832 24.57 0.7 33.3 83 -1.9 28.7
23:45 1003 29.62 832 24.57 0.7 33.2 83 -1.8 28.7
23:50 1003 29.62 832 24.57 0.5 32.9 84 -1.9 28.6
23:55 1003 29.62 832 24.57 0.6 33 85 -1.7 28.9
24:00 1003 29.62 832 24.57 0.5 33 86 -1.5 29.3